Flight Track Log - Related Links

Times and Time Zones

All times are in EDT time to prevent confusion due to time zone crossing. See the N465TP flight status page for this flight to view local times or setup timezone preferences in your user account.

Time Position Orientation Groundspeed Altitude Reporting Facility
EDT Latitude Longitude Course Direction KTS MPH feet Rate Location/Type
Mon 02:32:00 PM 45.2537 -111.5732 111° Southeast  Level Estimated
Mon 02:32:16 PM 45.2592 -111.3069 109° East 182 209 14,600  Level Salt Lake Center
Mon 02:33:00 PM 45.2331 -111.4976 111° Southeast  Level Estimated
Mon 02:33:18 PM 45.2378 -111.2314 112° Southeast 184 212 16,000  Level Salt Lake Center
Mon 02:34:00 PM 45.2123 -111.4221 111° Southeast  Level Estimated
Mon 02:34:20 PM 45.2175 -111.1669 114° Southeast 186 214 17,200  Level Salt Lake Center
Mon 02:35:00 PM 45.1916 -111.3466 111° Southeast  Level Estimated
Mon 02:35:22 PM 45.1919 -111.0886 115° Southeast 190 219 18,600  Level Salt Lake Center
Mon 02:36:00 PM 45.1708 -111.2712 111° Southeast  Level Estimated
Mon 02:36:24 PM 45.1700 -111.0203 114° Southeast 197 227 19,000  Level Salt Lake Center
Mon 02:37:26 PM 45.1389 -110.9217 114° Southeast 233 268 19,000  Level Salt Lake Center
Mon 02:38:28 PM 45.1108 -110.8347 115° Southeast 247 284 19,000  Level Salt Lake Center
Mon 02:39:30 PM 45.0797 -110.7342 114° Southeast 251 289 19,000  Level Salt Lake Center
Mon 02:40:32 PM 45.0514 -110.6469 115° Southeast 253 291 19,000  Level Salt Lake Center
Mon 02:41:34 PM 45.0186 -110.5456 115° Southeast 253 291 19,000  Level Salt Lake Center
Mon 02:42:36 PM 44.9919 -110.4578 113° Southeast 254 292 19,000  Level Salt Lake Center
Mon 02:43:38 PM 44.9633 -110.3708 115° Southeast 256 295 19,000  Level Salt Lake Center
Mon 02:44:40 PM 44.9278 -110.2722 117° Southeast 252 290 19,000  Level Salt Lake Center
Mon 02:45:42 PM 44.8864 -110.1975 128° Southeast 251 289 19,000  Level Salt Lake Center
Mon 02:46:44 PM 44.8464 -110.1039 121° Southeast 251 289 19,000  Level Salt Lake Center
Mon 02:47:45 PM 44.8169 -110.0208 117° Southeast 248 285 19,000  Level Salt Lake Center
Mon 02:48:47 PM 44.7867 -109.9192 113° Southeast 251 289 19,000  Level Salt Lake Center
Mon 02:49:49 PM 44.7592 -109.8258 113° Southeast 254 292 19,000  Level Salt Lake Center
Mon 02:50:51 PM 44.7328 -109.7333 112° Southeast 256 295 19,000  Level Salt Lake Center
Mon 02:51:53 PM 44.7039 -109.6419 114° Southeast 256 295 19,000  Level Salt Lake Center
Mon 02:52:55 PM 44.6769 -109.5511 113° Southeast 254 292 19,000 -339 Level Salt Lake Center
Mon 02:53:57 PM 44.6508 -109.4622 112° Southeast 250 288 18,300 -1,220 Descending Salt Lake Center
Mon 02:54:58 PM 44.6253 -109.3761 113° Southeast 241 277 16,500 -1,770 Descending Salt Lake Center
Mon 02:56:00 PM 44.5936 -109.2878 112° Southeast  Level FlightAware Approximate
Mon 03:03:00 PM 44.5167 -109.0167 109° East  Level FlightAware Approximate
Mon 03:04:00 PM 44.5202 -109.0238 109° East  Level Estimated
Mon 03:05:00 PM 44.5167 -109.0167 109° East  Level FlightAware Approximate
Mon 03:06:00 PM 44.5202 -109.0238 109° East  Level Estimated
Mon 03:07:00 PM 44.5167 -109.0167 109° East  Level FlightAware Approximate
Mon 03:08:00 PM 44.5202 -109.0238 109° East  Level Estimated
Mon 03:09:00 PM 44.5167 -109.0167 109° East  Level FlightAware Approximate
Mon 03:10:00 PM 44.5202 -109.0238 109° East  Level Estimated
Mon 03:11:00 PM 44.5167 -109.0167 109° East  Level FlightAware Approximate
Mon 03:12:00 PM 44.5202 -109.0238 109° East  Level Estimated
Mon 03:13:00 PM 44.5167 -109.0167 109° East  Level FlightAware Approximate
Mon 03:14:00 PM 44.5202 -109.0238 109° East  Level Estimated
Mon 03:15:00 PM 44.5167 -109.0167 109° East  Level FlightAware Approximate
Mon 03:16:00 PM 44.5202 -109.0238 109° East  Level Estimated

Login

Don't have an account? Register now (free) for customized features, flight alerts, and more!